Bronte, Texas
Current Conditions -  °F | °C
As of 3:51 PM on Friday 31 Oct 2014 (Local Time) from KSJT Reporting Station
Clear Clear  
Wind Chill: 23°   Ceiling: Unl
Heat Index: 23°   Visibility: 10mi
Dew Point:   Wind: 10mph
Humidity: 23%   Direction: 40°NE
Pressure: 30.3"   Gusts: NA
Location:  31.89°N, 100.29°W
Report Text: KSJT 312051Z 04009KT 10SM CLR 23/01 A3030 RMK AO2 SLP243 T02280006 56027
Loading
Personal Weather Stations






























Interactive Weather Map
Tropical Storm Tracking
New forecast layout! Learn more

10-Day Weather Forecast

Advertisements
Track Severe Weather on mobile